sensor_id;sensor_type;location;lat;lon;timestamp;temperature;humidity
23633;DHT22;11993;48.748;9.166;2024-02-16T00:01:02;10.70;71.90
23633;DHT22;11993;48.748;9.166;2024-02-16T00:03:28;10.90;71.60
23633;DHT22;11993;48.748;9.166;2024-02-16T00:05:56;10.80;71.80
23633;DHT22;11993;48.748;9.166;2024-02-16T00:08:21;10.70;71.80
23633;DHT22;11993;48.748;9.166;2024-02-16T00:10:47;10.70;71.90
23633;DHT22;11993;48.748;9.166;2024-02-16T00:13:14;10.70;72.00
23633;DHT22;11993;48.748;9.166;2024-02-16T00:15:39;10.70;71.50
23633;DHT22;11993;48.748;9.166;2024-02-16T00:18:06;10.80;71.30
23633;DHT22;11993;48.748;9.166;2024-02-16T00:20:33;10.80;71.20
23633;DHT22;11993;48.748;9.166;2024-02-16T00:22:58;10.80;70.60
23633;DHT22;11993;48.748;9.166;2024-02-16T00:25:25;10.80;70.30
23633;DHT22;11993;48.748;9.166;2024-02-16T00:27:51;10.90;69.90
23633;DHT22;11993;48.748;9.166;2024-02-16T00:30:18;10.80;69.90
23633;DHT22;11993;48.748;9.166;2024-02-16T00:32:44;10.80;69.70
23633;DHT22;11993;48.748;9.166;2024-02-16T00:35:11;10.70;69.90
23633;DHT22;11993;48.748;9.166;2024-02-16T00:37:37;10.80;69.40
23633;DHT22;11993;48.748;9.166;2024-02-16T00:40:04;10.90;69.20
23633;DHT22;11993;48.748;9.166;2024-02-16T00:42:30;10.80;68.50
23633;DHT22;11993;48.748;9.166;2024-02-16T00:44:57;10.90;68.00
23633;DHT22;11993;48.748;9.166;2024-02-16T00:47:22;11.10;67.50
23633;DHT22;11993;48.748;9.166;2024-02-16T00:49:49;11.10;67.60
23633;DHT22;11993;48.748;9.166;2024-02-16T00:52:14;11.00;67.80
23633;DHT22;11993;48.748;9.166;2024-02-16T00:54:40;11.00;67.80
23633;DHT22;11993;48.748;9.166;2024-02-16T00:57:05;11.00;67.70
23633;DHT22;11993;48.748;9.166;2024-02-16T00:59:31;11.00;67.70
23633;DHT22;11993;48.748;9.166;2024-02-16T01:01:57;11.00;68.00
23633;DHT22;11993;48.748;9.166;2024-02-16T01:04:23;10.90;68.10
23633;DHT22;11993;48.748;9.166;2024-02-16T01:06:49;10.90;68.10
23633;DHT22;11993;48.748;9.166;2024-02-16T01:09:15;11.00;67.90
23633;DHT22;11993;48.748;9.166;2024-02-16T01:11:41;11.00;67.60
23633;DHT22;11993;48.748;9.166;2024-02-16T01:14:07;11.10;67.30
23633;DHT22;11993;48.748;9.166;2024-02-16T01:16:33;11.00;67.30
23633;DHT22;11993;48.748;9.166;2024-02-16T01:18:59;11.10;67.20
23633;DHT22;11993;48.748;9.166;2024-02-16T01:21:24;11.10;66.70
23633;DHT22;11993;48.748;9.166;2024-02-16T01:23:50;11.10;66.50
23633;DHT22;11993;48.748;9.166;2024-02-16T01:26:15;11.10;66.50
23633;DHT22;11993;48.748;9.166;2024-02-16T01:28:41;11.10;66.60
23633;DHT22;11993;48.748;9.166;2024-02-16T01:31:08;11.10;66.70
23633;DHT22;11993;48.748;9.166;2024-02-16T01:33:38;11.20;66.30
23633;DHT22;11993;48.748;9.166;2024-02-16T01:36:04;11.10;66.70
23633;DHT22;11993;48.748;9.166;2024-02-16T01:38:29;11.10;66.70
23633;DHT22;11993;48.748;9.166;2024-02-16T01:40:55;11.10;66.80
23633;DHT22;11993;48.748;9.166;2024-02-16T01:43:21;11.00;66.90
23633;DHT22;11993;48.748;9.166;2024-02-16T01:45:53;11.10;66.70
23633;DHT22;11993;48.748;9.166;2024-02-16T01:51:41;11.10;66.40
23633;DHT22;11993;48.748;9.166;2024-02-16T01:54:07;11.10;66.30
23633;DHT22;11993;48.748;9.166;2024-02-16T01:56:33;11.10;66.20
23633;DHT22;11993;48.748;9.166;2024-02-16T01:58:58;11.10;66.50
23633;DHT22;11993;48.748;9.166;2024-02-16T02:01:24;11.10;67.40
23633;DHT22;11993;48.748;9.166;2024-02-16T02:03:52;11.10;68.30
23633;DHT22;11993;48.748;9.166;2024-02-16T02:06:18;11.00;69.40
23633;DHT22;11993;48.748;9.166;2024-02-16T02:08:43;11.10;69.60
23633;DHT22;11993;48.748;9.166;2024-02-16T02:11:09;10.90;70.40
23633;DHT22;11993;48.748;9.166;2024-02-16T02:13:34;10.90;70.40
23633;DHT22;11993;48.748;9.166;2024-02-16T02:16:00;11.00;70.00
23633;DHT22;11993;48.748;9.166;2024-02-16T02:18:28;11.00;70.10
23633;DHT22;11993;48.748;9.166;2024-02-16T02:20:54;10.90;70.40
23633;DHT22;11993;48.748;9.166;2024-02-16T02:23:19;11.00;69.40
23633;DHT22;11993;48.748;9.166;2024-02-16T02:25:45;11.10;69.80
23633;DHT22;11993;48.748;9.166;2024-02-16T02:28:10;11.10;68.50
23633;DHT22;11993;48.748;9.166;2024-02-16T02:30:37;11.10;69.00
23633;DHT22;11993;48.748;9.166;2024-02-16T02:33:03;11.00;69.40
23633;DHT22;11993;48.748;9.166;2024-02-16T02:35:30;10.90;69.90
23633;DHT22;11993;48.748;9.166;2024-02-16T02:37:58;11.10;69.50
23633;DHT22;11993;48.748;9.166;2024-02-16T02:40:24;11.00;69.80
23633;DHT22;11993;48.748;9.166;2024-02-16T02:42:53;11.10;69.10
23633;DHT22;11993;48.748;9.166;2024-02-16T02:45:19;10.90;69.60
23633;DHT22;11993;48.748;9.166;2024-02-16T02:47:44;11.00;69.50
23633;DHT22;11993;48.748;9.166;2024-02-16T02:50:11;11.10;68.90
23633;DHT22;11993;48.748;9.166;2024-02-16T02:52:37;11.00;69.10
23633;DHT22;11993;48.748;9.166;2024-02-16T02:55:03;11.00;69.20
23633;DHT22;11993;48.748;9.166;2024-02-16T02:57:29;11.00;68.50
23633;DHT22;11993;48.748;9.166;2024-02-16T03:00:03;11.00;68.30
23633;DHT22;11993;48.748;9.166;2024-02-16T03:02:33;11.00;68.10
23633;DHT22;11993;48.748;9.166;2024-02-16T03:04:59;11.10;67.70
23633;DHT22;11993;48.748;9.166;2024-02-16T03:07:25;11.20;67.10
23633;DHT22;11993;48.748;9.166;2024-02-16T03:09:50;11.10;67.30
23633;DHT22;11993;48.748;9.166;2024-02-16T03:12:16;11.00;67.60
23633;DHT22;11993;48.748;9.166;2024-02-16T03:14:42;11.00;67.50
23633;DHT22;11993;48.748;9.166;2024-02-16T03:17:07;11.10;67.50
23633;DHT22;11993;48.748;9.166;2024-02-16T03:19:33;11.10;67.40
23633;DHT22;11993;48.748;9.166;2024-02-16T03:22:02;11.10;67.50
23633;DHT22;11993;48.748;9.166;2024-02-16T03:24:28;11.00;67.60
23633;DHT22;11993;48.748;9.166;2024-02-16T03:26:54;11.00;67.30
23633;DHT22;11993;48.748;9.166;2024-02-16T03:29:19;11.10;67.40
23633;DHT22;11993;48.748;9.166;2024-02-16T03:31:45;11.10;67.20
23633;DHT22;11993;48.748;9.166;2024-02-16T03:34:10;11.10;66.90
23633;DHT22;11993;48.748;9.166;2024-02-16T03:36:36;11.00;67.00
23633;DHT22;11993;48.748;9.166;2024-02-16T03:39:01;11.10;66.90
23633;DHT22;11993;48.748;9.166;2024-02-16T03:41:27;11.10;66.80
23633;DHT22;11993;48.748;9.166;2024-02-16T03:43:53;11.10;66.60
23633;DHT22;11993;48.748;9.166;2024-02-16T03:46:19;11.10;66.70
23633;DHT22;11993;48.748;9.166;2024-02-16T03:48:45;11.10;66.70
23633;DHT22;11993;48.748;9.166;2024-02-16T03:54:32;11.10;67.00
23633;DHT22;11993;48.748;9.166;2024-02-16T03:56:58;11.10;66.60
23633;DHT22;11993;48.748;9.166;2024-02-16T03:59:23;11.10;66.40
23633;DHT22;11993;48.748;9.166;2024-02-16T04:01:49;11.10;66.50
23633;DHT22;11993;48.748;9.166;2024-02-16T04:04:15;11.10;66.30
23633;DHT22;11993;48.748;9.166;2024-02-16T04:06:40;11.10;66.90
23633;DHT22;11993;48.748;9.166;2024-02-16T04:09:06;10.80;68.40
23633;DHT22;11993;48.748;9.166;2024-02-16T04:11:32;10.70;68.80
23633;DHT22;11993;48.748;9.166;2024-02-16T04:13:58;10.70;69.00
23633;DHT22;11993;48.748;9.166;2024-02-16T04:16:23;10.70;69.20
23633;DHT22;11993;48.748;9.166;2024-02-16T04:18:50;10.70;69.50
23633;DHT22;11993;48.748;9.166;2024-02-16T04:21:16;10.70;69.90
23633;DHT22;11993;48.748;9.166;2024-02-16T04:23:44;10.60;70.60
23633;DHT22;11993;48.748;9.166;2024-02-16T04:26:09;10.70;70.40
23633;DHT22;11993;48.748;9.166;2024-02-16T04:28:35;10.50;71.20
23633;DHT22;11993;48.748;9.166;2024-02-16T04:31:01;10.30;71.50
23633;DHT22;11993;48.748;9.166;2024-02-16T04:33:27;10.30;71.80
23633;DHT22;11993;48.748;9.166;2024-02-16T04:35:52;10.20;72.70
23633;DHT22;11993;48.748;9.166;2024-02-16T04:38:18;10.10;73.00
23633;DHT22;11993;48.748;9.166;2024-02-16T04:40:45;10.20;72.80
23633;DHT22;11993;48.748;9.166;2024-02-16T04:43:19;10.20;72.40
23633;DHT22;11993;48.748;9.166;2024-02-16T04:45:45;10.20;72.10
23633;DHT22;11993;48.748;9.166;2024-02-16T04:48:14;10.20;71.90
23633;DHT22;11993;48.748;9.166;2024-02-16T04:50:39;10.20;71.90
23633;DHT22;11993;48.748;9.166;2024-02-16T04:53:05;10.30;71.60
23633;DHT22;11993;48.748;9.166;2024-02-16T04:55:34;10.30;71.10
23633;DHT22;11993;48.748;9.166;2024-02-16T04:57:59;10.40;71.20
23633;DHT22;11993;48.748;9.166;2024-02-16T05:00:25;10.30;71.90
23633;DHT22;11993;48.748;9.166;2024-02-16T05:02:52;10.20;72.80
23633;DHT22;11993;48.748;9.166;2024-02-16T05:05:21;10.20;73.00
23633;DHT22;11993;48.748;9.166;2024-02-16T05:07:48;10.10;73.50
23633;DHT22;11993;48.748;9.166;2024-02-16T05:10:15;10.10;74.10
23633;DHT22;11993;48.748;9.166;2024-02-16T05:12:41;10.00;74.60
23633;DHT22;11993;48.748;9.166;2024-02-16T05:15:07;9.80;75.50
23633;DHT22;11993;48.748;9.166;2024-02-16T05:17:33;9.60;76.30
23633;DHT22;11993;48.748;9.166;2024-02-16T05:19:58;9.60;76.70
23633;DHT22;11993;48.748;9.166;2024-02-16T05:22:24;9.60;77.30
23633;DHT22;11993;48.748;9.166;2024-02-16T05:24:49;9.40;77.90
23633;DHT22;11993;48.748;9.166;2024-02-16T05:27:15;9.40;78.30
23633;DHT22;11993;48.748;9.166;2024-02-16T05:29:41;9.30;78.80
23633;DHT22;11993;48.748;9.166;2024-02-16T05:32:07;9.30;78.90
23633;DHT22;11993;48.748;9.166;2024-02-16T05:34:32;9.40;78.30
23633;DHT22;11993;48.748;9.166;2024-02-16T05:37:06;9.30;78.30
23633;DHT22;11993;48.748;9.166;2024-02-16T05:39:33;9.30;77.90
23633;DHT22;11993;48.748;9.166;2024-02-16T05:42:01;9.40;77.50
23633;DHT22;11993;48.748;9.166;2024-02-16T05:44:27;9.50;76.90
23633;DHT22;11993;48.748;9.166;2024-02-16T05:46:53;9.50;76.40
23633;DHT22;11993;48.748;9.166;2024-02-16T05:49:19;9.50;76.20
23633;DHT22;11993;48.748;9.166;2024-02-16T05:51:45;9.60;75.50
23633;DHT22;11993;48.748;9.166;2024-02-16T05:54:31;9.60;75.30
23633;DHT22;11993;48.748;9.166;2024-02-16T05:56:56;9.70;74.60
23633;DHT22;11993;48.748;9.166;2024-02-16T05:59:22;9.70;74.60
23633;DHT22;11993;48.748;9.166;2024-02-16T06:01:50;9.70;74.40
23633;DHT22;11993;48.748;9.166;2024-02-16T06:04:16;9.70;74.50
23633;DHT22;11993;48.748;9.166;2024-02-16T06:06:41;9.70;74.30
23633;DHT22;11993;48.748;9.166;2024-02-16T06:09:07;9.70;74.10
23633;DHT22;11993;48.748;9.166;2024-02-16T06:11:32;9.80;74.30
23633;DHT22;11993;48.748;9.166;2024-02-16T06:13:58;9.80;74.10
23633;DHT22;11993;48.748;9.166;2024-02-16T06:16:24;9.70;74.30
23633;DHT22;11993;48.748;9.166;2024-02-16T06:18:49;9.80;74.10
23633;DHT22;11993;48.748;9.166;2024-02-16T06:21:15;9.80;74.20
23633;DHT22;11993;48.748;9.166;2024-02-16T06:23:41;9.80;73.90
23633;DHT22;11993;48.748;9.166;2024-02-16T06:29:29;9.70;74.20
23633;DHT22;11993;48.748;9.166;2024-02-16T06:31:55;9.80;74.10
23633;DHT22;11993;48.748;9.166;2024-02-16T06:34:21;9.90;73.90
23633;DHT22;11993;48.748;9.166;2024-02-16T06:36:47;9.90;73.80
23633;DHT22;11993;48.748;9.166;2024-02-16T06:39:13;10.00;73.10
23633;DHT22;11993;48.748;9.166;2024-02-16T06:41:44;10.00;73.40
23633;DHT22;11993;48.748;9.166;2024-02-16T06:44:12;10.10;72.80
23633;DHT22;11993;48.748;9.166;2024-02-16T06:46:38;10.10;73.00
23633;DHT22;11993;48.748;9.166;2024-02-16T06:49:04;10.10;72.10
23633;DHT22;11993;48.748;9.166;2024-02-16T06:54:51;10.30;70.70
23633;DHT22;11993;48.748;9.166;2024-02-16T06:57:17;10.30;70.30
23633;DHT22;11993;48.748;9.166;2024-02-16T06:59:42;10.40;69.80
23633;DHT22;11993;48.748;9.166;2024-02-16T07:02:08;10.40;70.10
23633;DHT22;11993;48.748;9.166;2024-02-16T07:04:36;10.50;70.40
23633;DHT22;11993;48.748;9.166;2024-02-16T07:07:01;10.30;70.80
23633;DHT22;11993;48.748;9.166;2024-02-16T07:09:28;10.30;70.90
23633;DHT22;11993;48.748;9.166;2024-02-16T07:11:54;10.40;69.70
23633;DHT22;11993;48.748;9.166;2024-02-16T07:14:20;10.40;69.80
23633;DHT22;11993;48.748;9.166;2024-02-16T07:16:46;10.40;69.90
23633;DHT22;11993;48.748;9.166;2024-02-16T07:19:11;10.40;70.20
23633;DHT22;11993;48.748;9.166;2024-02-16T07:21:38;10.40;70.20
23633;DHT22;11993;48.748;9.166;2024-02-16T07:24:03;10.50;70.00
23633;DHT22;11993;48.748;9.166;2024-02-16T07:26:29;10.50;69.80
23633;DHT22;11993;48.748;9.166;2024-02-16T07:28:55;10.60;69.20
23633;DHT22;11993;48.748;9.166;2024-02-16T07:31:21;10.70;68.90
23633;DHT22;11993;48.748;9.166;2024-02-16T07:33:46;10.80;68.00
23633;DHT22;11993;48.748;9.166;2024-02-16T07:39:34;10.90;67.50
23633;DHT22;11993;48.748;9.166;2024-02-16T07:42:00;10.90;67.40
23633;DHT22;11993;48.748;9.166;2024-02-16T07:44:28;11.00;66.90
23633;DHT22;11993;48.748;9.166;2024-02-16T07:46:53;10.90;67.30
23633;DHT22;11993;48.748;9.166;2024-02-16T07:49:19;11.00;67.00
23633;DHT22;11993;48.748;9.166;2024-02-16T07:51:44;11.00;67.00
23633;DHT22;11993;48.748;9.166;2024-02-16T07:54:10;10.90;67.50
23633;DHT22;11993;48.748;9.166;2024-02-16T07:59:58;11.10;66.80
23633;DHT22;11993;48.748;9.166;2024-02-16T08:02:23;11.00;67.20
23633;DHT22;11993;48.748;9.166;2024-02-16T08:08:11;11.30;66.30
23633;DHT22;11993;48.748;9.166;2024-02-16T08:10:36;11.40;65.80
23633;DHT22;11993;48.748;9.166;2024-02-16T08:13:02;11.60;66.00
23633;DHT22;11993;48.748;9.166;2024-02-16T08:15:28;11.50;66.10
23633;DHT22;11993;48.748;9.166;2024-02-16T08:21:15;12.00;64.70
23633;DHT22;11993;48.748;9.166;2024-02-16T08:23:41;12.30;63.40
23633;DHT22;11993;48.748;9.166;2024-02-16T08:26:06;12.40;63.20
23633;DHT22;11993;48.748;9.166;2024-02-16T08:28:32;12.70;62.70
23633;DHT22;11993;48.748;9.166;2024-02-16T08:30:58;13.10;62.10
23633;DHT22;11993;48.748;9.166;2024-02-16T08:33:24;13.10;61.80
23633;DHT22;11993;48.748;9.166;2024-02-16T08:35:49;13.60;61.10
23633;DHT22;11993;48.748;9.166;2024-02-16T08:38:15;13.60;61.60
23633;DHT22;11993;48.748;9.166;2024-02-16T08:40:41;13.80;60.90
23633;DHT22;11993;48.748;9.166;2024-02-16T08:43:07;14.00;59.60
23633;DHT22;11993;48.748;9.166;2024-02-16T08:45:33;14.10;59.10
23633;DHT22;11993;48.748;9.166;2024-02-16T08:47:58;14.30;58.50
23633;DHT22;11993;48.748;9.166;2024-02-16T08:50:26;14.60;58.20
23633;DHT22;11993;48.748;9.166;2024-02-16T08:52:52;15.00;57.20
23633;DHT22;11993;48.748;9.166;2024-02-16T08:55:18;15.20;56.20
23633;DHT22;11993;48.748;9.166;2024-02-16T08:57:43;15.40;56.30
23633;DHT22;11993;48.748;9.166;2024-02-16T09:00:09;15.70;55.20
23633;DHT22;11993;48.748;9.166;2024-02-16T09:02:35;16.10;54.10
23633;DHT22;11993;48.748;9.166;2024-02-16T09:05:01;16.50;53.40
23633;DHT22;11993;48.748;9.166;2024-02-16T09:07:26;16.40;52.30
23633;DHT22;11993;48.748;9.166;2024-02-16T09:09:53;17.10;51.70
23633;DHT22;11993;48.748;9.166;2024-02-16T09:12:19;17.20;49.80
23633;DHT22;11993;48.748;9.166;2024-02-16T09:18:07;17.40;49.60
23633;DHT22;11993;48.748;9.166;2024-02-16T09:20:32;17.50;49.50
23633;DHT22;11993;48.748;9.166;2024-02-16T09:22:58;18.00;48.60
23633;DHT22;11993;48.748;9.166;2024-02-16T09:28:45;17.90;48.20
23633;DHT22;11993;48.748;9.166;2024-02-16T09:31:14;17.90;48.40
23633;DHT22;11993;48.748;9.166;2024-02-16T09:37:02;16.80;50.40
23633;DHT22;11993;48.748;9.166;2024-02-16T09:39:29;17.10;50.00
23633;DHT22;11993;48.748;9.166;2024-02-16T09:41:56;17.00;50.40
23633;DHT22;11993;48.748;9.166;2024-02-16T09:44:23;17.30;49.50
23633;DHT22;11993;48.748;9.166;2024-02-16T09:46:50;17.40;49.50
23633;DHT22;11993;48.748;9.166;2024-02-16T09:49:19;18.20;48.60
23633;DHT22;11993;48.748;9.166;2024-02-16T09:51:45;19.20;46.50
23633;DHT22;11993;48.748;9.166;2024-02-16T09:54:10;19.60;45.40
23633;DHT22;11993;48.748;9.166;2024-02-16T09:59:58;19.60;45.90
23633;DHT22;11993;48.748;9.166;2024-02-16T10:06:09;19.20;44.70
23633;DHT22;11993;48.748;9.166;2024-02-16T10:11:58;19.10;45.50
23633;DHT22;11993;48.748;9.166;2024-02-16T10:14:24;19.40;45.40
23633;DHT22;11993;48.748;9.166;2024-02-16T10:17:04;19.40;45.10
23633;DHT22;11993;48.748;9.166;2024-02-16T10:19:31;18.70;46.50
23633;DHT22;11993;48.748;9.166;2024-02-16T10:22:11;18.70;47.00
23633;DHT22;11993;48.748;9.166;2024-02-16T10:24:38;18.60;47.30
23633;DHT22;11993;48.748;9.166;2024-02-16T10:27:16;18.40;46.80
23633;DHT22;11993;48.748;9.166;2024-02-16T10:29:47;18.20;47.50
23633;DHT22;11993;48.748;9.166;2024-02-16T10:32:17;18.20;47.90
23633;DHT22;11993;48.748;9.166;2024-02-16T10:34:45;18.30;47.70
23633;DHT22;11993;48.748;9.166;2024-02-16T10:37:16;17.90;48.40
23633;DHT22;11993;48.748;9.166;2024-02-16T10:39:42;17.60;48.90
23633;DHT22;11993;48.748;9.166;2024-02-16T10:45:35;17.40;50.30
23633;DHT22;11993;48.748;9.166;2024-02-16T10:48:02;17.40;50.00
23633;DHT22;11993;48.748;9.166;2024-02-16T10:50:28;17.60;50.20
23633;DHT22;11993;48.748;9.166;2024-02-16T10:56:16;17.10;50.70
23633;DHT22;11993;48.748;9.166;2024-02-16T10:58:42;17.10;51.40
23633;DHT22;11993;48.748;9.166;2024-02-16T11:01:09;17.10;51.10
23633;DHT22;11993;48.748;9.166;2024-02-16T11:03:38;17.20;51.10
23633;DHT22;11993;48.748;9.166;2024-02-16T11:06:16;17.20;51.60
23633;DHT22;11993;48.748;9.166;2024-02-16T11:08:42;17.20;51.30
23633;DHT22;11993;48.748;9.166;2024-02-16T11:11:08;17.30;51.70
23633;DHT22;11993;48.748;9.166;2024-02-16T11:13:37;17.10;51.70
23633;DHT22;11993;48.748;9.166;2024-02-16T11:16:07;17.30;51.20
23633;DHT22;11993;48.748;9.166;2024-02-16T11:18:39;17.20;51.70
23633;DHT22;11993;48.748;9.166;2024-02-16T11:21:05;17.30;51.30
23633;DHT22;11993;48.748;9.166;2024-02-16T11:23:35;17.30;51.60
23633;DHT22;11993;48.748;9.166;2024-02-16T11:26:02;17.10;51.80
23633;DHT22;11993;48.748;9.166;2024-02-16T11:28:31;17.40;51.50
23633;DHT22;11993;48.748;9.166;2024-02-16T11:30:57;17.60;51.90
23633;DHT22;11993;48.748;9.166;2024-02-16T11:33:22;17.70;51.30
23633;DHT22;11993;48.748;9.166;2024-02-16T11:35:56;17.50;50.90
23633;DHT22;11993;48.748;9.166;2024-02-16T11:38:23;17.50;51.10
23633;DHT22;11993;48.748;9.166;2024-02-16T11:44:18;17.40;51.40
23633;DHT22;11993;48.748;9.166;2024-02-16T11:46:43;17.50;51.60
23633;DHT22;11993;48.748;9.166;2024-02-16T11:49:09;17.40;51.30
23633;DHT22;11993;48.748;9.166;2024-02-16T11:51:37;18.10;50.20
23633;DHT22;11993;48.748;9.166;2024-02-16T11:54:04;18.30;49.80
23633;DHT22;11993;48.748;9.166;2024-02-16T11:56:30;18.60;49.20
23633;DHT22;11993;48.748;9.166;2024-02-16T11:58:56;18.70;48.80
23633;DHT22;11993;48.748;9.166;2024-02-16T12:01:22;19.20;47.60
23633;DHT22;11993;48.748;9.166;2024-02-16T12:03:47;19.70;47.00
23633;DHT22;11993;48.748;9.166;2024-02-16T12:06:23;19.50;46.60
23633;DHT22;11993;48.748;9.166;2024-02-16T12:08:49;19.70;46.60
23633;DHT22;11993;48.748;9.166;2024-02-16T12:11:16;19.70;47.30
23633;DHT22;11993;48.748;9.166;2024-02-16T12:13:41;19.30;47.60
23633;DHT22;11993;48.748;9.166;2024-02-16T12:16:07;19.50;48.50
23633;DHT22;11993;48.748;9.166;2024-02-16T12:18:33;19.60;47.40
23633;DHT22;11993;48.748;9.166;2024-02-16T12:21:03;19.60;46.70
23633;DHT22;11993;48.748;9.166;2024-02-16T12:23:29;20.20;46.10
23633;DHT22;11993;48.748;9.166;2024-02-16T12:25:59;20.20;45.80
23633;DHT22;11993;48.748;9.166;2024-02-16T12:28:27;20.90;45.00
23633;DHT22;11993;48.748;9.166;2024-02-16T12:30:58;20.60;45.10
23633;DHT22;11993;48.748;9.166;2024-02-16T12:36:46;20.40;46.20
23633;DHT22;11993;48.748;9.166;2024-02-16T12:39:12;20.50;46.30
23633;DHT22;11993;48.748;9.166;2024-02-16T12:41:39;20.50;46.20
23633;DHT22;11993;48.748;9.166;2024-02-16T12:47:29;19.90;47.40
23633;DHT22;11993;48.748;9.166;2024-02-16T12:49:56;19.70;48.00
23633;DHT22;11993;48.748;9.166;2024-02-16T12:52:23;19.60;48.70
23633;DHT22;11993;48.748;9.166;2024-02-16T12:54:48;18.90;49.90
23633;DHT22;11993;48.748;9.166;2024-02-16T12:57:14;19.00;49.70
23633;DHT22;11993;48.748;9.166;2024-02-16T12:59:39;18.80;50.30
23633;DHT22;11993;48.748;9.166;2024-02-16T13:02:05;18.60;50.50
23633;DHT22;11993;48.748;9.166;2024-02-16T13:04:31;18.60;50.70
23633;DHT22;11993;48.748;9.166;2024-02-16T13:06:58;18.80;50.80
23633;DHT22;11993;48.748;9.166;2024-02-16T13:09:23;18.70;51.20
23633;DHT22;11993;48.748;9.166;2024-02-16T13:11:49;18.60;51.60
23633;DHT22;11993;48.748;9.166;2024-02-16T13:14:22;18.50;52.00
23633;DHT22;11993;48.748;9.166;2024-02-16T13:16:48;18.10;52.90
23633;DHT22;11993;48.748;9.166;2024-02-16T13:19:13;18.30;53.00
23633;DHT22;11993;48.748;9.166;2024-02-16T13:21:39;18.10;53.50
23633;DHT22;11993;48.748;9.166;2024-02-16T13:27:27;17.80;53.70
23633;DHT22;11993;48.748;9.166;2024-02-16T13:29:52;17.80;54.20
23633;DHT22;11993;48.748;9.166;2024-02-16T13:32:19;18.00;54.40
23633;DHT22;11993;48.748;9.166;2024-02-16T13:34:44;18.10;54.60
23633;DHT22;11993;48.748;9.166;2024-02-16T13:37:10;17.90;54.10
23633;DHT22;11993;48.748;9.166;2024-02-16T13:39:35;17.80;54.50
23633;DHT22;11993;48.748;9.166;2024-02-16T13:42:01;17.50;55.20
23633;DHT22;11993;48.748;9.166;2024-02-16T13:44:26;17.30;55.10
23633;DHT22;11993;48.748;9.166;2024-02-16T13:46:52;17.10;55.50
23633;DHT22;11993;48.748;9.166;2024-02-16T13:49:18;17.30;55.30
23633;DHT22;11993;48.748;9.166;2024-02-16T13:51:43;17.50;55.10
23633;DHT22;11993;48.748;9.166;2024-02-16T13:54:10;17.30;56.30
23633;DHT22;11993;48.748;9.166;2024-02-16T13:56:36;17.10;56.30
23633;DHT22;11993;48.748;9.166;2024-02-16T13:59:04;17.10;57.00
23633;DHT22;11993;48.748;9.166;2024-02-16T14:01:30;17.30;56.50
23633;DHT22;11993;48.748;9.166;2024-02-16T14:03:56;17.40;56.30
23633;DHT22;11993;48.748;9.166;2024-02-16T14:06:22;17.40;56.20
23633;DHT22;11993;48.748;9.166;2024-02-16T14:08:48;17.30;56.50
23633;DHT22;11993;48.748;9.166;2024-02-16T14:11:14;17.20;56.50
23633;DHT22;11993;48.748;9.166;2024-02-16T14:13:40;17.30;56.10
23633;DHT22;11993;48.748;9.166;2024-02-16T14:16:06;17.10;57.70
23633;DHT22;11993;48.748;9.166;2024-02-16T14:18:33;17.10;57.70
23633;DHT22;11993;48.748;9.166;2024-02-16T14:20:58;17.10;57.70
23633;DHT22;11993;48.748;9.166;2024-02-16T14:23:24;17.10;58.00
23633;DHT22;11993;48.748;9.166;2024-02-16T14:25:49;17.20;57.60
23633;DHT22;11993;48.748;9.166;2024-02-16T14:28:15;17.00;57.90
23633;DHT22;11993;48.748;9.166;2024-02-16T14:34:04;16.80;58.50
23633;DHT22;11993;48.748;9.166;2024-02-16T14:36:29;16.70;58.90
23633;DHT22;11993;48.748;9.166;2024-02-16T14:38:55;16.90;58.60
23633;DHT22;11993;48.748;9.166;2024-02-16T14:41:20;17.00;58.30
23633;DHT22;11993;48.748;9.166;2024-02-16T14:43:47;16.80;59.60
23633;DHT22;11993;48.748;9.166;2024-02-16T14:46:13;16.80;59.80
23633;DHT22;11993;48.748;9.166;2024-02-16T14:48:40;16.90;59.20
23633;DHT22;11993;48.748;9.166;2024-02-16T14:51:06;17.00;58.90
23633;DHT22;11993;48.748;9.166;2024-02-16T14:56:54;16.90;60.10
23633;DHT22;11993;48.748;9.166;2024-02-16T14:59:19;16.90;60.50
23633;DHT22;11993;48.748;9.166;2024-02-16T15:01:45;16.90;60.60
23633;DHT22;11993;48.748;9.166;2024-02-16T15:04:10;16.70;60.80
23633;DHT22;11993;48.748;9.166;2024-02-16T15:06:36;16.60;61.40
23633;DHT22;11993;48.748;9.166;2024-02-16T15:09:02;16.40;62.20
23633;DHT22;11993;48.748;9.166;2024-02-16T15:11:31;16.20;62.60
23633;DHT22;11993;48.748;9.166;2024-02-16T15:13:56;16.20;62.80
23633;DHT22;11993;48.748;9.166;2024-02-16T15:16:22;16.20;62.60
23633;DHT22;11993;48.748;9.166;2024-02-16T15:18:48;16.40;62.50
23633;DHT22;11993;48.748;9.166;2024-02-16T15:21:13;16.30;62.70
23633;DHT22;11993;48.748;9.166;2024-02-16T15:23:39;16.30;62.70
23633;DHT22;11993;48.748;9.166;2024-02-16T15:26:04;16.20;63.20
23633;DHT22;11993;48.748;9.166;2024-02-16T15:28:31;16.20;63.00
23633;DHT22;11993;48.748;9.166;2024-02-16T15:30:58;16.30;63.10
23633;DHT22;11993;48.748;9.166;2024-02-16T15:33:24;16.30;63.00
23633;DHT22;11993;48.748;9.166;2024-02-16T15:35:49;16.10;63.60
23633;DHT22;11993;48.748;9.166;2024-02-16T15:38:15;16.20;63.40
23633;DHT22;11993;48.748;9.166;2024-02-16T15:40:41;16.10;63.60
23633;DHT22;11993;48.748;9.166;2024-02-16T15:43:07;16.10;63.80
23633;DHT22;11993;48.748;9.166;2024-02-16T15:45:33;16.20;63.60
23633;DHT22;11993;48.748;9.166;2024-02-16T15:48:09;16.10;63.90
23633;DHT22;11993;48.748;9.166;2024-02-16T15:50:40;16.10;64.00
23633;DHT22;11993;48.748;9.166;2024-02-16T15:53:09;16.10;64.20
23633;DHT22;11993;48.748;9.166;2024-02-16T15:55:34;16.10;64.30
23633;DHT22;11993;48.748;9.166;2024-02-16T15:58:01;16.00;64.40
23633;DHT22;11993;48.748;9.166;2024-02-16T16:00:26;15.80;65.10
23633;DHT22;11993;48.748;9.166;2024-02-16T16:02:52;15.60;65.70
23633;DHT22;11993;48.748;9.166;2024-02-16T16:05:18;15.70;65.40
23633;DHT22;11993;48.748;9.166;2024-02-16T16:07:44;15.80;65.30
23633;DHT22;11993;48.748;9.166;2024-02-16T16:10:09;15.70;65.60
23633;DHT22;11993;48.748;9.166;2024-02-16T16:12:36;15.70;65.30
23633;DHT22;11993;48.748;9.166;2024-02-16T16:15:02;15.80;65.40
23633;DHT22;11993;48.748;9.166;2024-02-16T16:17:28;15.70;65.70
23633;DHT22;11993;48.748;9.166;2024-02-16T16:23:15;15.70;65.90
23633;DHT22;11993;48.748;9.166;2024-02-16T16:25:43;15.70;65.80
23633;DHT22;11993;48.748;9.166;2024-02-16T16:28:09;15.60;66.10
23633;DHT22;11993;48.748;9.166;2024-02-16T16:30:34;15.70;66.20
23633;DHT22;11993;48.748;9.166;2024-02-16T16:33:00;15.60;66.30
23633;DHT22;11993;48.748;9.166;2024-02-16T16:35:25;15.70;66.30
23633;DHT22;11993;48.748;9.166;2024-02-16T16:37:51;15.60;66.50
23633;DHT22;11993;48.748;9.166;2024-02-16T16:43:38;15.50;67.20
23633;DHT22;11993;48.748;9.166;2024-02-16T16:46:05;15.40;67.40
23633;DHT22;11993;48.748;9.166;2024-02-16T16:48:32;15.30;67.60